Aline, Oklahoma
Current Conditions -  °F | °C
As of 6:30 AM on Tuesday 21 Oct 2014 (Local Time) from KAVK Reporting Station
Overcast Overcast  
Wind Chill: 55°   Ceiling: 6000
Heat Index: 55°   Visibility: 7mi
Dew Point: 55°   Wind: 6mph
Humidity: 100%   Direction: 50°NE
Pressure: 30.06"   Gusts: NA
Location:  36.51°N, 98.45°W
Report Text: KAVK 211130Z AUTO 05005KT 7SM SCT005 OVC060 13/13 A3006 RMK AO2
Loading
Personal Weather Stations






























Interactive Weather Map
Tropical Storm Tracking
New forecast layout! Learn more

10-Day Weather Forecast

Advertisements
Track Severe Weather on mobile